sensor_id;sensor_type;location;lat;lon;timestamp;temperature;humidity
77277;DHT22;66330;52.166;9.978;2023-03-03T00:02:18;3.00;73.70
77277;DHT22;66330;52.166;9.978;2023-03-03T00:04:43;3.00;73.80
77277;DHT22;66330;52.166;9.978;2023-03-03T00:07:10;3.10;74.00
77277;DHT22;66330;52.166;9.978;2023-03-03T00:09:35;3.10;73.90
77277;DHT22;66330;52.166;9.978;2023-03-03T00:12:02;3.10;74.60
77277;DHT22;66330;52.166;9.978;2023-03-03T00:14:42;3.10;73.70
77277;DHT22;66330;52.166;9.978;2023-03-03T00:17:20;3.30;73.90
77277;DHT22;66330;52.166;9.978;2023-03-03T00:19:46;3.30;73.90
77277;DHT22;66330;52.166;9.978;2023-03-03T00:22:30;2.90;73.40
77277;DHT22;66330;52.166;9.978;2023-03-03T00:27:51;3.20;73.60
77277;DHT22;66330;52.166;9.978;2023-03-03T00:30:23;3.00;73.30
77277;DHT22;66330;52.166;9.978;2023-03-03T00:32:53;3.40;73.70
77277;DHT22;66330;52.166;9.978;2023-03-03T00:35:26;3.00;74.00
77277;DHT22;66330;52.166;9.978;2023-03-03T00:37:57;3.40;73.50
77277;DHT22;66330;52.166;9.978;2023-03-03T00:40:36;3.10;73.10
77277;DHT22;66330;52.166;9.978;2023-03-03T00:48:23;3.00;73.30
77277;DHT22;66330;52.166;9.978;2023-03-03T00:50:51;3.00;73.20
77277;DHT22;66330;52.166;9.978;2023-03-03T00:53:19;3.00;73.20
77277;DHT22;66330;52.166;9.978;2023-03-03T00:55:46;3.00;73.20
77277;DHT22;66330;52.166;9.978;2023-03-03T00:58:12;3.30;73.50
77277;DHT22;66330;52.166;9.978;2023-03-03T01:00:39;2.90;72.30
77277;DHT22;66330;52.166;9.978;2023-03-03T01:03:07;3.00;73.30
77277;DHT22;66330;52.166;9.978;2023-03-03T01:05:34;3.00;73.30
77277;DHT22;66330;52.166;9.978;2023-03-03T01:08:00;3.00;73.30
77277;DHT22;66330;52.166;9.978;2023-03-03T01:10:27;3.20;73.40
77277;DHT22;66330;52.166;9.978;2023-03-03T01:12:54;3.00;73.10
77277;DHT22;66330;52.166;9.978;2023-03-03T01:15:22;3.00;72.10
77277;DHT22;66330;52.166;9.978;2023-03-03T01:17:47;3.00;72.90
77277;DHT22;66330;52.166;9.978;2023-03-03T01:20:13;3.30;73.10
77277;DHT22;66330;52.166;9.978;2023-03-03T01:22:39;2.90;73.40
77277;DHT22;66330;52.166;9.978;2023-03-03T01:25:05;2.90;72.60
77277;DHT22;66330;52.166;9.978;2023-03-03T01:27:32;2.90;72.60
77277;DHT22;66330;52.166;9.978;2023-03-03T01:29:58;2.90;72.60
77277;DHT22;66330;52.166;9.978;2023-03-03T01:32:24;3.10;73.00
77277;DHT22;66330;52.166;9.978;2023-03-03T01:34:50;2.70;72.80
77277;DHT22;66330;52.166;9.978;2023-03-03T01:37:15;2.70;73.00
77277;DHT22;66330;52.166;9.978;2023-03-03T01:39:41;2.80;73.10
77277;DHT22;66330;52.166;9.978;2023-03-03T01:42:07;2.80;73.10
77277;DHT22;66330;52.166;9.978;2023-03-03T01:44:33;2.80;73.20
77277;DHT22;66330;52.166;9.978;2023-03-03T01:47:21;2.80;73.20
77277;DHT22;66330;52.166;9.978;2023-03-03T01:49:57;2.80;73.20
77277;DHT22;66330;52.166;9.978;2023-03-03T01:54:56;2.80;73.10
77277;DHT22;66330;52.166;9.978;2023-03-03T01:57:34;2.80;73.20
77277;DHT22;66330;52.166;9.978;2023-03-03T02:00:03;2.80;73.20
77277;DHT22;66330;52.166;9.978;2023-03-03T02:02:30;2.80;73.20
77277;DHT22;66330;52.166;9.978;2023-03-03T02:04:56;2.80;73.30
77277;DHT22;66330;52.166;9.978;2023-03-03T02:07:22;2.80;73.40
77277;DHT22;66330;52.166;9.978;2023-03-03T02:12:27;2.90;73.50
77277;DHT22;66330;52.166;9.978;2023-03-03T02:14:55;2.90;73.40
77277;DHT22;66330;52.166;9.978;2023-03-03T02:17:21;2.80;73.20
77277;DHT22;66330;52.166;9.978;2023-03-03T02:20:05;2.90;73.30
77277;DHT22;66330;52.166;9.978;2023-03-03T02:22:46;2.80;73.30
77277;DHT22;66330;52.166;9.978;2023-03-03T02:25:26;2.80;73.30
77277;DHT22;66330;52.166;9.978;2023-03-03T02:27:53;2.80;73.20
77277;DHT22;66330;52.166;9.978;2023-03-03T02:30:20;2.80;73.00
77277;DHT22;66330;52.166;9.978;2023-03-03T02:32:46;2.70;72.90
77277;DHT22;66330;52.166;9.978;2023-03-03T02:35:39;2.70;73.10
77277;DHT22;66330;52.166;9.978;2023-03-03T02:38:27;2.70;73.30
77277;DHT22;66330;52.166;9.978;2023-03-03T02:41:12;2.70;73.40
77277;DHT22;66330;52.166;9.978;2023-03-03T02:43:55;2.60;73.20
77277;DHT22;66330;52.166;9.978;2023-03-03T02:46:23;2.60;73.20
77277;DHT22;66330;52.166;9.978;2023-03-03T02:48:49;2.60;73.20
77277;DHT22;66330;52.166;9.978;2023-03-03T02:51:14;2.60;73.20
77277;DHT22;66330;52.166;9.978;2023-03-03T02:53:40;2.50;71.90
77277;DHT22;66330;52.166;9.978;2023-03-03T02:56:06;2.50;73.50
77277;DHT22;66330;52.166;9.978;2023-03-03T02:58:34;2.50;73.60
77277;DHT22;66330;52.166;9.978;2023-03-03T03:01:00;2.50;73.80
77277;DHT22;66330;52.166;9.978;2023-03-03T03:03:25;2.70;74.00
77277;DHT22;66330;52.166;9.978;2023-03-03T03:05:51;2.60;74.00
77277;DHT22;66330;52.166;9.978;2023-03-03T03:08:16;2.70;74.10
77277;DHT22;66330;52.166;9.978;2023-03-03T03:10:42;2.70;74.00
77277;DHT22;66330;52.166;9.978;2023-03-03T03:13:07;2.60;73.90
77277;DHT22;66330;52.166;9.978;2023-03-03T03:15:34;2.80;73.90
77277;DHT22;66330;52.166;9.978;2023-03-03T03:18:00;2.60;73.80
77277;DHT22;66330;52.166;9.978;2023-03-03T03:20:26;2.60;73.70
77277;DHT22;66330;52.166;9.978;2023-03-03T03:22:51;2.90;74.00
77277;DHT22;66330;52.166;9.978;2023-03-03T03:25:17;2.80;73.90
77277;DHT22;66330;52.166;9.978;2023-03-03T03:27:43;2.50;73.50
77277;DHT22;66330;52.166;9.978;2023-03-03T03:30:09;2.60;72.80
77277;DHT22;66330;52.166;9.978;2023-03-03T03:32:34;2.60;73.60
77277;DHT22;66330;52.166;9.978;2023-03-03T03:35:00;2.60;73.50
77277;DHT22;66330;52.166;9.978;2023-03-03T03:37:26;2.70;73.80
77277;DHT22;66330;52.166;9.978;2023-03-03T03:39:51;2.80;73.90
77277;DHT22;66330;52.166;9.978;2023-03-03T03:42:18;2.60;73.70
77277;DHT22;66330;52.166;9.978;2023-03-03T03:44:43;2.70;73.70
77277;DHT22;66330;52.166;9.978;2023-03-03T03:47:09;2.60;74.30
77277;DHT22;66330;52.166;9.978;2023-03-03T03:49:35;2.60;72.60
77277;DHT22;66330;52.166;9.978;2023-03-03T03:52:00;2.50;73.30
77277;DHT22;66330;52.166;9.978;2023-03-03T03:54:26;2.70;73.40
77277;DHT22;66330;52.166;9.978;2023-03-03T03:56:52;2.70;73.50
77277;DHT22;66330;52.166;9.978;2023-03-03T03:59:19;2.80;73.50
77277;DHT22;66330;52.166;9.978;2023-03-03T04:01:45;2.60;73.30
77277;DHT22;66330;52.166;9.978;2023-03-03T04:04:12;2.60;73.30
77277;DHT22;66330;52.166;9.978;2023-03-03T04:06:38;2.60;73.50
77277;DHT22;66330;52.166;9.978;2023-03-03T04:09:04;2.60;73.50
77277;DHT22;66330;52.166;9.978;2023-03-03T04:11:29;2.70;73.70
77277;DHT22;66330;52.166;9.978;2023-03-03T04:13:55;2.70;72.90
77277;DHT22;66330;52.166;9.978;2023-03-03T04:16:20;2.60;73.60
77277;DHT22;66330;52.166;9.978;2023-03-03T04:18:46;2.60;73.50
77277;DHT22;66330;52.166;9.978;2023-03-03T04:21:13;2.50;73.30
77277;DHT22;66330;52.166;9.978;2023-03-03T04:23:39;2.60;73.50
77277;DHT22;66330;52.166;9.978;2023-03-03T04:26:04;2.80;73.70
77277;DHT22;66330;52.166;9.978;2023-03-03T04:28:30;2.70;73.50
77277;DHT22;66330;52.166;9.978;2023-03-03T04:30:55;2.80;73.50
77277;DHT22;66330;52.166;9.978;2023-03-03T04:33:21;2.90;73.70
77277;DHT22;66330;52.166;9.978;2023-03-03T04:35:47;2.70;73.50
77277;DHT22;66330;52.166;9.978;2023-03-03T04:38:12;2.60;73.40
77277;DHT22;66330;52.166;9.978;2023-03-03T04:40:41;2.60;73.30
77277;DHT22;66330;52.166;9.978;2023-03-03T04:43:08;2.80;73.80
77277;DHT22;66330;52.166;9.978;2023-03-03T04:45:34;3.00;73.80
77277;DHT22;66330;52.166;9.978;2023-03-03T04:48:00;2.70;73.50
77277;DHT22;66330;52.166;9.978;2023-03-03T04:50:26;2.70;73.50
77277;DHT22;66330;52.166;9.978;2023-03-03T04:52:51;3.00;73.80
77277;DHT22;66330;52.166;9.978;2023-03-03T04:55:17;2.90;73.60
77277;DHT22;66330;52.166;9.978;2023-03-03T04:57:43;2.90;73.60
77277;DHT22;66330;52.166;9.978;2023-03-03T05:00:10;2.90;73.60
77277;DHT22;66330;52.166;9.978;2023-03-03T05:02:38;2.80;73.50
77277;DHT22;66330;52.166;9.978;2023-03-03T05:05:05;2.80;73.60
77277;DHT22;66330;52.166;9.978;2023-03-03T05:07:30;2.80;73.50
77277;DHT22;66330;52.166;9.978;2023-03-03T05:09:56;2.80;73.60
77277;DHT22;66330;52.166;9.978;2023-03-03T05:12:21;2.80;72.30
77277;DHT22;66330;52.166;9.978;2023-03-03T05:14:47;2.80;73.50
77277;DHT22;66330;52.166;9.978;2023-03-03T05:17:13;2.80;74.30
77277;DHT22;66330;52.166;9.978;2023-03-03T05:19:39;3.10;73.80
77277;DHT22;66330;52.166;9.978;2023-03-03T05:22:04;2.90;73.80
77277;DHT22;66330;52.166;9.978;2023-03-03T05:24:30;2.80;73.70
77277;DHT22;66330;52.166;9.978;2023-03-03T05:26:56;2.90;73.70
77277;DHT22;66330;52.166;9.978;2023-03-03T05:29:22;2.90;73.70
77277;DHT22;66330;52.166;9.978;2023-03-03T05:31:47;3.00;73.80
77277;DHT22;66330;52.166;9.978;2023-03-03T05:34:13;3.00;73.80
77277;DHT22;66330;52.166;9.978;2023-03-03T05:36:38;2.90;73.70
77277;DHT22;66330;52.166;9.978;2023-03-03T05:39:04;3.00;73.80
77277;DHT22;66330;52.166;9.978;2023-03-03T05:41:29;3.00;73.90
77277;DHT22;66330;52.166;9.978;2023-03-03T05:43:55;2.80;73.90
77277;DHT22;66330;52.166;9.978;2023-03-03T05:46:21;2.90;74.00
77277;DHT22;66330;52.166;9.978;2023-03-03T05:48:46;2.70;73.80
77277;DHT22;66330;52.166;9.978;2023-03-03T05:51:12;2.80;73.90
77277;DHT22;66330;52.166;9.978;2023-03-03T05:53:37;2.80;73.70
77277;DHT22;66330;52.166;9.978;2023-03-03T05:56:03;2.90;73.90
77277;DHT22;66330;52.166;9.978;2023-03-03T05:58:29;2.60;73.70
77277;DHT22;66330;52.166;9.978;2023-03-03T06:00:54;2.80;74.00
77277;DHT22;66330;52.166;9.978;2023-03-03T06:03:20;3.00;74.30
77277;DHT22;66330;52.166;9.978;2023-03-03T06:05:46;3.40;74.60
77277;DHT22;66330;52.166;9.978;2023-03-03T06:08:12;2.80;74.00
77277;DHT22;66330;52.166;9.978;2023-03-03T06:10:37;2.90;74.10
77277;DHT22;66330;52.166;9.978;2023-03-03T06:13:03;2.90;74.10
77277;DHT22;66330;52.166;9.978;2023-03-03T06:15:29;2.80;74.00
77277;DHT22;66330;52.166;9.978;2023-03-03T06:17:54;2.90;74.10
77277;DHT22;66330;52.166;9.978;2023-03-03T06:20:20;3.00;74.20
77277;DHT22;66330;52.166;9.978;2023-03-03T06:22:46;2.90;72.60
77277;DHT22;66330;52.166;9.978;2023-03-03T06:25:11;3.20;74.10
77277;DHT22;66330;52.166;9.978;2023-03-03T06:27:37;2.90;74.00
77277;DHT22;66330;52.166;9.978;2023-03-03T06:30:03;3.20;74.40
77277;DHT22;66330;52.166;9.978;2023-03-03T06:32:28;3.20;75.10
77277;DHT22;66330;52.166;9.978;2023-03-03T06:34:54;3.00;74.20
77277;DHT22;66330;52.166;9.978;2023-03-03T06:37:20;3.10;74.30
77277;DHT22;66330;52.166;9.978;2023-03-03T06:39:45;3.10;74.30
77277;DHT22;66330;52.166;9.978;2023-03-03T06:42:11;3.10;74.20
77277;DHT22;66330;52.166;9.978;2023-03-03T06:44:36;3.10;73.00
77277;DHT22;66330;52.166;9.978;2023-03-03T06:47:02;3.10;74.00
77277;DHT22;66330;52.166;9.978;2023-03-03T06:49:28;3.40;74.20
77277;DHT22;66330;52.166;9.978;2023-03-03T06:51:54;3.20;73.70
77277;DHT22;66330;52.166;9.978;2023-03-03T06:54:23;3.20;73.70
77277;DHT22;66330;52.166;9.978;2023-03-03T06:56:54;3.40;73.80
77277;DHT22;66330;52.166;9.978;2023-03-03T06:59:21;3.20;73.70
77277;DHT22;66330;52.166;9.978;2023-03-03T07:01:49;3.30;73.70
77277;DHT22;66330;52.166;9.978;2023-03-03T07:04:29;3.20;73.70
77277;DHT22;66330;52.166;9.978;2023-03-03T07:07:14;3.30;73.70
77277;DHT22;66330;52.166;9.978;2023-03-03T07:09:46;3.40;73.70
77277;DHT22;66330;52.166;9.978;2023-03-03T07:12:15;3.40;72.50
77277;DHT22;66330;52.166;9.978;2023-03-03T07:14:47;3.50;73.50
77277;DHT22;66330;52.166;9.978;2023-03-03T07:17:20;3.50;73.50
77277;DHT22;66330;52.166;9.978;2023-03-03T07:19:46;3.90;73.40
77277;DHT22;66330;52.166;9.978;2023-03-03T07:22:20;3.90;73.60
77277;DHT22;66330;52.166;9.978;2023-03-03T07:24:53;3.80;73.30
77277;DHT22;66330;52.166;9.978;2023-03-03T07:27:23;3.80;73.20
77277;DHT22;66330;52.166;9.978;2023-03-03T07:29:50;4.00;73.30
77277;DHT22;66330;52.166;9.978;2023-03-03T07:32:39;3.70;73.00
77277;DHT22;66330;52.166;9.978;2023-03-03T07:35:42;4.00;73.30
77277;DHT22;66330;52.166;9.978;2023-03-03T07:41:00;3.80;72.90
77277;DHT22;66330;52.166;9.978;2023-03-03T07:43:37;3.80;72.80
77277;DHT22;66330;52.166;9.978;2023-03-03T07:46:28;3.80;72.90
77277;DHT22;66330;52.166;9.978;2023-03-03T07:48:55;3.80;72.80
77277;DHT22;66330;52.166;9.978;2023-03-03T07:51:25;3.90;72.80
77277;DHT22;66330;52.166;9.978;2023-03-03T07:53:54;3.80;72.80
77277;DHT22;66330;52.166;9.978;2023-03-03T07:56:33;3.80;72.70
77277;DHT22;66330;52.166;9.978;2023-03-03T07:59:02;4.00;73.00
77277;DHT22;66330;52.166;9.978;2023-03-03T08:01:36;4.10;73.10
77277;DHT22;66330;52.166;9.978;2023-03-03T08:14:10;4.70;73.70
77277;DHT22;66330;52.166;9.978;2023-03-03T08:16:37;4.20;74.10
77277;DHT22;66330;52.166;9.978;2023-03-03T08:19:05;4.20;73.30
77277;DHT22;66330;52.166;9.978;2023-03-03T08:21:30;4.10;73.00
77277;DHT22;66330;52.166;9.978;2023-03-03T08:23:57;4.20;72.90
77277;DHT22;66330;52.166;9.978;2023-03-03T08:26:24;4.20;72.70
77277;DHT22;66330;52.166;9.978;2023-03-03T08:28:51;4.20;72.60
77277;DHT22;66330;52.166;9.978;2023-03-03T08:31:17;4.20;72.60
77277;DHT22;66330;52.166;9.978;2023-03-03T08:33:43;4.30;72.80
77277;DHT22;66330;52.166;9.978;2023-03-03T08:36:09;4.30;72.80
77277;DHT22;66330;52.166;9.978;2023-03-03T08:38:35;4.30;72.60
77277;DHT22;66330;52.166;9.978;2023-03-03T08:41:02;4.30;72.50
77277;DHT22;66330;52.166;9.978;2023-03-03T08:43:28;4.40;72.50
77277;DHT22;66330;52.166;9.978;2023-03-03T08:45:57;4.40;71.70
77277;DHT22;66330;52.166;9.978;2023-03-03T08:48:23;4.50;72.20
77277;DHT22;66330;52.166;9.978;2023-03-03T08:50:49;4.60;72.10
77277;DHT22;66330;52.166;9.978;2023-03-03T08:53:15;4.70;72.10
77277;DHT22;66330;52.166;9.978;2023-03-03T08:55:42;4.80;71.70
77277;DHT22;66330;52.166;9.978;2023-03-03T08:58:08;5.10;72.10
77277;DHT22;66330;52.166;9.978;2023-03-03T09:00:34;4.90;71.60
77277;DHT22;66330;52.166;9.978;2023-03-03T09:02:59;4.90;71.40
77277;DHT22;66330;52.166;9.978;2023-03-03T09:05:26;5.00;71.50
77277;DHT22;66330;52.166;9.978;2023-03-03T09:07:52;5.50;71.70
77277;DHT22;66330;52.166;9.978;2023-03-03T09:10:22;5.10;70.60
77277;DHT22;66330;52.166;9.978;2023-03-03T09:12:59;5.20;70.80
77277;DHT22;66330;52.166;9.978;2023-03-03T09:15:31;5.20;70.60
77277;DHT22;66330;52.166;9.978;2023-03-03T09:18:09;5.40;70.50
77277;DHT22;66330;52.166;9.978;2023-03-03T09:20:39;5.20;70.10
77277;DHT22;66330;52.166;9.978;2023-03-03T09:23:36;5.30;70.30
77277;DHT22;66330;52.166;9.978;2023-03-03T09:26:46;5.50;70.50
77277;DHT22;66330;52.166;9.978;2023-03-03T09:31:50;5.30;70.20
77277;DHT22;66330;52.166;9.978;2023-03-03T09:34:37;5.30;70.10
77277;DHT22;66330;52.166;9.978;2023-03-03T09:37:19;5.50;70.10
77277;DHT22;66330;52.166;9.978;2023-03-03T09:39:52;5.10;69.70
77277;DHT22;66330;52.166;9.978;2023-03-03T09:53:18;5.00;71.20
77277;DHT22;66330;52.166;9.978;2023-03-03T09:55:56;4.80;71.30
77277;DHT22;66330;52.166;9.978;2023-03-03T09:58:44;4.80;71.20
77277;DHT22;66330;52.166;9.978;2023-03-03T10:09:40;5.10;71.00
77277;DHT22;66330;52.166;9.978;2023-03-03T10:12:19;5.20;70.70
77277;DHT22;66330;52.166;9.978;2023-03-03T10:15:25;5.30;70.50
77277;DHT22;66330;52.166;9.978;2023-03-03T10:17:58;5.30;70.30
77277;DHT22;66330;52.166;9.978;2023-03-03T10:50:30;6.10;68.00
77277;DHT22;66330;52.166;9.978;2023-03-03T10:53:28;6.00;68.30
77277;DHT22;66330;52.166;9.978;2023-03-03T10:56:14;6.30;69.00
77277;DHT22;66330;52.166;9.978;2023-03-03T11:04:09;5.90;68.60
77277;DHT22;66330;52.166;9.978;2023-03-03T11:07:05;5.90;68.60
77277;DHT22;66330;52.166;9.978;2023-03-03T11:12:28;6.00;69.00
77277;DHT22;66330;52.166;9.978;2023-03-03T11:18:15;6.30;69.40
77277;DHT22;66330;52.166;9.978;2023-03-03T11:23:43;6.50;68.70
77277;DHT22;66330;52.166;9.978;2023-03-03T11:28:58;6.60;68.00
77277;DHT22;66330;52.166;9.978;2023-03-03T11:36:57;6.60;67.50
77277;DHT22;66330;52.166;9.978;2023-03-03T11:39:26;6.50;67.30
77277;DHT22;66330;52.166;9.978;2023-03-03T11:43:53;6.80;66.90
77277;DHT22;66330;52.166;9.978;2023-03-03T11:46:28;6.50;65.50
77277;DHT22;66330;52.166;9.978;2023-03-03T11:54:08;6.70;66.80
77277;DHT22;66330;52.166;9.978;2023-03-03T11:56:38;6.70;66.90
77277;DHT22;66330;52.166;9.978;2023-03-03T12:01:38;6.80;67.00
77277;DHT22;66330;52.166;9.978;2023-03-03T12:04:19;7.10;67.00
77277;DHT22;66330;52.166;9.978;2023-03-03T12:12:19;7.00;65.60
77277;DHT22;66330;52.166;9.978;2023-03-03T12:31:59;6.80;65.10
77277;DHT22;66330;52.166;9.978;2023-03-03T12:39:48;6.60;65.20
77277;DHT22;66330;52.166;9.978;2023-03-03T12:44:49;6.80;65.60
77277;DHT22;66330;52.166;9.978;2023-03-03T12:47:32;6.80;65.40
77277;DHT22;66330;52.166;9.978;2023-03-03T12:50:24;6.80;65.20
77277;DHT22;66330;52.166;9.978;2023-03-03T12:53:10;6.80;64.80
77277;DHT22;66330;52.166;9.978;2023-03-03T12:55:57;6.80;64.70
77277;DHT22;66330;52.166;9.978;2023-03-03T13:09:34;7.20;64.40
77277;DHT22;66330;52.166;9.978;2023-03-03T13:26:25;7.30;62.70
77277;DHT22;66330;52.166;9.978;2023-03-03T13:31:35;7.20;63.30
77277;DHT22;66330;52.166;9.978;2023-03-03T13:34:01;7.30;63.60
77277;DHT22;66330;52.166;9.978;2023-03-03T13:36:38;7.30;63.30
77277;DHT22;66330;52.166;9.978;2023-03-03T13:39:26;7.30;62.90
77277;DHT22;66330;52.166;9.978;2023-03-03T13:42:18;7.20;62.60
77277;DHT22;66330;52.166;9.978;2023-03-03T13:44:48;7.20;63.10
77277;DHT22;66330;52.166;9.978;2023-03-03T13:47:26;7.20;63.30
77277;DHT22;66330;52.166;9.978;2023-03-03T13:52:49;7.20;62.70
77277;DHT22;66330;52.166;9.978;2023-03-03T13:58:10;7.80;63.50
77277;DHT22;66330;52.166;9.978;2023-03-03T14:01:00;7.30;62.50
77277;DHT22;66330;52.166;9.978;2023-03-03T14:03:49;7.40;62.50
77277;DHT22;66330;52.166;9.978;2023-03-03T14:06:19;7.30;62.10
77277;DHT22;66330;52.166;9.978;2023-03-03T14:08:55;7.30;61.90
77277;DHT22;66330;52.166;9.978;2023-03-03T14:11:48;7.30;62.20
77277;DHT22;66330;52.166;9.978;2023-03-03T14:14:39;7.30;62.20
77277;DHT22;66330;52.166;9.978;2023-03-03T14:19:45;7.30;62.10
77277;DHT22;66330;52.166;9.978;2023-03-03T14:22:18;7.20;62.10
77277;DHT22;66330;52.166;9.978;2023-03-03T14:25:00;7.20;62.20
77277;DHT22;66330;52.166;9.978;2023-03-03T14:35:32;6.90;62.30
77277;DHT22;66330;52.166;9.978;2023-03-03T14:40:39;6.90;62.40
77277;DHT22;66330;52.166;9.978;2023-03-03T14:43:23;6.80;62.60
77277;DHT22;66330;52.166;9.978;2023-03-03T14:45:51;6.70;62.90
77277;DHT22;66330;52.166;9.978;2023-03-03T14:48:19;6.70;63.10
77277;DHT22;66330;52.166;9.978;2023-03-03T14:50:55;6.70;63.30
77277;DHT22;66330;52.166;9.978;2023-03-03T14:53:36;6.60;63.20
77277;DHT22;66330;52.166;9.978;2023-03-03T14:56:34;6.50;63.30
77277;DHT22;66330;52.166;9.978;2023-03-03T14:59:22;6.50;63.60
77277;DHT22;66330;52.166;9.978;2023-03-03T15:04:43;6.40;63.60
77277;DHT22;66330;52.166;9.978;2023-03-03T15:07:32;6.40;63.70
77277;DHT22;66330;52.166;9.978;2023-03-03T15:09:58;6.50;64.10
77277;DHT22;66330;52.166;9.978;2023-03-03T15:12:34;6.40;64.10
77277;DHT22;66330;52.166;9.978;2023-03-03T15:17:40;6.40;64.40
77277;DHT22;66330;52.166;9.978;2023-03-03T15:20:44;6.50;64.50
77277;DHT22;66330;52.166;9.978;2023-03-03T15:34:19;6.60;64.10
77277;DHT22;66330;52.166;9.978;2023-03-03T15:42:26;6.50;63.40
77277;DHT22;66330;52.166;9.978;2023-03-03T15:50:40;6.50;64.20
77277;DHT22;66330;52.166;9.978;2023-03-03T15:53:38;6.50;64.20
77277;DHT22;66330;52.166;9.978;2023-03-03T16:05:12;6.60;64.40
77277;DHT22;66330;52.166;9.978;2023-03-03T16:10:21;6.70;63.90
77277;DHT22;66330;52.166;9.978;2023-03-03T16:23:59;6.30;64.10
77277;DHT22;66330;52.166;9.978;2023-03-03T16:26:59;6.20;64.00
77277;DHT22;66330;52.166;9.978;2023-03-03T16:32:16;6.00;64.30
77277;DHT22;66330;52.166;9.978;2023-03-03T16:35:20;5.90;65.00
77277;DHT22;66330;52.166;9.978;2023-03-03T16:40:48;5.70;64.40
77277;DHT22;66330;52.166;9.978;2023-03-03T16:43:42;5.50;64.80
77277;DHT22;66330;52.166;9.978;2023-03-03T16:46:38;5.40;65.00
77277;DHT22;66330;52.166;9.978;2023-03-03T16:52:09;5.20;65.60
77277;DHT22;66330;52.166;9.978;2023-03-03T16:55:01;5.10;65.90
77277;DHT22;66330;52.166;9.978;2023-03-03T17:00:29;4.90;66.40
77277;DHT22;66330;52.166;9.978;2023-03-03T17:05:59;4.70;66.50
77277;DHT22;66330;52.166;9.978;2023-03-03T17:16:59;4.30;67.90
77277;DHT22;66330;52.166;9.978;2023-03-03T17:22:42;4.20;68.20
77277;DHT22;66330;52.166;9.978;2023-03-03T17:26:03;4.10;68.60
77277;DHT22;66330;52.166;9.978;2023-03-03T17:41:51;3.80;69.20
77277;DHT22;66330;52.166;9.978;2023-03-03T17:44:40;3.70;69.80
77277;DHT22;66330;52.166;9.978;2023-03-03T17:47:15;3.70;69.90
77277;DHT22;66330;52.166;9.978;2023-03-03T17:59:04;3.40;70.50
77277;DHT22;66330;52.166;9.978;2023-03-03T18:13:17;2.90;71.30
77277;DHT22;66330;52.166;9.978;2023-03-03T18:18:43;2.90;71.80
77277;DHT22;66330;52.166;9.978;2023-03-03T18:21:15;3.00;72.10
77277;DHT22;66330;52.166;9.978;2023-03-03T18:23:43;3.30;72.60
77277;DHT22;66330;52.166;9.978;2023-03-03T18:36:55;2.80;73.00
77277;DHT22;66330;52.166;9.978;2023-03-03T18:44:44;2.90;73.60
77277;DHT22;66330;52.166;9.978;2023-03-03T18:47:12;2.90;72.60
77277;DHT22;66330;52.166;9.978;2023-03-03T18:52:30;3.50;74.40
77277;DHT22;66330;52.166;9.978;2023-03-03T18:57:34;3.60;74.30
77277;DHT22;66330;52.166;9.978;2023-03-03T19:00:21;3.40;73.90
77277;DHT22;66330;52.166;9.978;2023-03-03T19:02:52;3.70;73.40
77277;DHT22;66330;52.166;9.978;2023-03-03T19:05:25;3.60;73.90
77277;DHT22;66330;52.166;9.978;2023-03-03T19:07:58;3.70;73.90
77277;DHT22;66330;52.166;9.978;2023-03-03T19:10:57;3.80;73.80
77277;DHT22;66330;52.166;9.978;2023-03-03T19:13:38;3.90;73.70
77277;DHT22;66330;52.166;9.978;2023-03-03T19:16:10;4.30;73.90
77277;DHT22;66330;52.166;9.978;2023-03-03T19:21:24;4.20;72.70
77277;DHT22;66330;52.166;9.978;2023-03-03T19:24:23;4.20;73.00
77277;DHT22;66330;52.166;9.978;2023-03-03T19:27:27;4.30;73.00
77277;DHT22;66330;52.166;9.978;2023-03-03T19:30:19;4.30;72.70
77277;DHT22;66330;52.166;9.978;2023-03-03T19:38:21;4.80;72.90
77277;DHT22;66330;52.166;9.978;2023-03-03T19:41:02;4.70;72.70
77277;DHT22;66330;52.166;9.978;2023-03-03T19:46:37;4.50;72.30
77277;DHT22;66330;52.166;9.978;2023-03-03T20:00:00;4.80;72.00
77277;DHT22;66330;52.166;9.978;2023-03-03T20:07:47;4.90;71.70
77277;DHT22;66330;52.166;9.978;2023-03-03T20:23:58;5.10;71.10
77277;DHT22;66330;52.166;9.978;2023-03-03T20:30:26;5.20;71.10
77277;DHT22;66330;52.166;9.978;2023-03-03T20:40:53;5.30;70.70
77277;DHT22;66330;52.166;9.978;2023-03-03T20:44:01;5.30;70.30
77277;DHT22;66330;52.166;9.978;2023-03-03T20:51:58;5.40;69.40
77277;DHT22;66330;52.166;9.978;2023-03-03T20:57:22;5.50;70.00
77277;DHT22;66330;52.166;9.978;2023-03-03T20:59:57;5.50;69.80
77277;DHT22;66330;52.166;9.978;2023-03-03T21:05:16;5.50;69.60
77277;DHT22;66330;52.166;9.978;2023-03-03T21:08:00;5.50;69.50
77277;DHT22;66330;52.166;9.978;2023-03-03T21:10:28;5.90;69.80
77277;DHT22;66330;52.166;9.978;2023-03-03T21:12:57;5.60;69.40
77277;DHT22;66330;52.166;9.978;2023-03-03T21:15:27;5.60;69.20
77277;DHT22;66330;52.166;9.978;2023-03-03T21:17:55;5.60;68.10
77277;DHT22;66330;52.166;9.978;2023-03-03T21:20:32;5.70;69.30
77277;DHT22;66330;52.166;9.978;2023-03-03T21:23:00;5.60;68.10
77277;DHT22;66330;52.166;9.978;2023-03-03T21:25:47;5.60;69.00
77277;DHT22;66330;52.166;9.978;2023-03-03T21:28:25;5.60;68.90
77277;DHT22;66330;52.166;9.978;2023-03-03T21:33:51;6.20;69.60
77277;DHT22;66330;52.166;9.978;2023-03-03T21:36:22;5.60;69.00
77277;DHT22;66330;52.166;9.978;2023-03-03T21:38:49;5.50;68.80
77277;DHT22;66330;52.166;9.978;2023-03-03T21:41:16;5.60;69.00
77277;DHT22;66330;52.166;9.978;2023-03-03T21:43:46;5.60;68.90
77277;DHT22;66330;52.166;9.978;2023-03-03T21:46:17;5.60;69.00
77277;DHT22;66330;52.166;9.978;2023-03-03T21:48:43;5.60;68.90
77277;DHT22;66330;52.166;9.978;2023-03-03T21:51:09;5.60;69.00
77277;DHT22;66330;52.166;9.978;2023-03-03T21:53:39;5.60;69.00
77277;DHT22;66330;52.166;9.978;2023-03-03T21:56:05;5.60;69.00
77277;DHT22;66330;52.166;9.978;2023-03-03T21:58:30;5.50;68.80
77277;DHT22;66330;52.166;9.978;2023-03-03T22:00:56;5.60;68.90
77277;DHT22;66330;52.166;9.978;2023-03-03T22:03:22;5.60;69.00
77277;DHT22;66330;52.166;9.978;2023-03-03T22:05:48;5.60;68.90
77277;DHT22;66330;52.166;9.978;2023-03-03T22:08:14;5.80;69.00
77277;DHT22;66330;52.166;9.978;2023-03-03T22:10:47;5.60;68.70
77277;DHT22;66330;52.166;9.978;2023-03-03T22:13:16;5.60;68.70
77277;DHT22;66330;52.166;9.978;2023-03-03T22:15:41;5.60;68.70
77277;DHT22;66330;52.166;9.978;2023-03-03T22:18:07;5.60;68.70
77277;DHT22;66330;52.166;9.978;2023-03-03T22:20:32;5.60;68.70
77277;DHT22;66330;52.166;9.978;2023-03-03T22:22:58;5.60;68.70
77277;DHT22;66330;52.166;9.978;2023-03-03T22:25:23;5.80;68.90
77277;DHT22;66330;52.166;9.978;2023-03-03T22:27:49;5.50;68.60
77277;DHT22;66330;52.166;9.978;2023-03-03T22:30:15;6.10;69.20
77277;DHT22;66330;52.166;9.978;2023-03-03T22:32:40;5.50;68.50
77277;DHT22;66330;52.166;9.978;2023-03-03T22:35:07;5.50;68.70
77277;DHT22;66330;52.166;9.978;2023-03-03T22:37:32;5.50;68.70
77277;DHT22;66330;52.166;9.978;2023-03-03T22:39:58;5.50;68.70
77277;DHT22;66330;52.166;9.978;2023-03-03T22:42:23;5.40;68.60
77277;DHT22;66330;52.166;9.978;2023-03-03T22:44:49;5.50;68.30